Terminal Aerodrome Forecast
Issued by NWS

Home | Current Version | Previous Version | Text Only | Print | Product List | Glossary Off
Versions: 1 2 3 4 5 6 7 8 9 10 11 12 13

000
FTUS43 KABR 270533
TAFATY
TAF
KATY 270533Z 2706/2806 18004KT P6SM SCT250
     FM271500 23010KT P6SM FEW070
     FM280200 27014KT P6SM VCTS SCT070CB BKN200=

USA.gov is the U.S. government's official web portal to all federal, state and local government web resources and services.